Time;durP1;ratioP1;P1;durP2;ratioP2;P2;SDS_P1;SDS_P2;PMS_P1;PMS_P2;Temp;Humidity;BMP_temperature;BMP_pressure;BME280_temperature;BME280_humidity;BME280_pressure;Samples;Min_cycle;Max_cycle;Signal;HPM_P1;HPM_P2
2021/10/25 00:00:19;;;;;;;17.43;6.37;;;;;;;;;;4434972;32;20299;-55
2021/10/25 00:02:44;;;;;;;15.07;7.40;;;;;;;;;;4434486;32;20284;-53
2021/10/25 00:05:10;;;;;;;13.03;4.93;;;;;;;;;;4435134;32;20292;-52
2021/10/25 00:07:35;;;;;;;11.30;6.70;;;;;;;;;;4435277;32;20319;-53
2021/10/25 00:10:01;;;;;;;12.70;5.60;;;;;;;;;;4433788;32;20399;-54
2021/10/25 00:12:26;;;;;;;13.90;6.43;;;;;;;;;;4434935;32;20264;-53
2021/10/25 00:14:52;;;;;;;20.57;6.57;;;;;;;;;;4435158;32;20288;-53
2021/10/25 00:17:18;;;;;;;9.23;5.90;;;;;;;;;;4433623;32;20278;-53
2021/10/25 00:19:43;;;;;;;7.93;4.93;;;;;;;;;;4435147;32;20268;-53
2021/10/25 00:22:09;;;;;;;11.83;5.97;;;;;;;;;;4424152;32;20620;-54
2021/10/25 00:24:34;;;;;;;11.53;5.50;;;;;;;;;;4419611;32;20280;-52
2021/10/25 00:26:59;;;;;;;9.70;5.47;;;;;;;;;;4429022;32;20648;-52
2021/10/25 00:29:25;;;;;;;11.73;6.67;;;;;;;;;;4434850;32;20313;-54
2021/10/25 00:31:50;;;;;;;40.60;10.83;;;;;;;;;;4435111;32;20906;-53
2021/10/25 00:34:16;;;;;;;31.60;14.40;;;;;;;;;;4434803;32;20317;-53
2021/10/25 00:36:41;;;;;;;34.27;14.73;;;;;;;;;;4434658;32;20327;-53
2021/10/25 00:39:08;;;;;;;28.73;12.17;;;;;;;;;;4434700;32;20628;-53
2021/10/25 00:41:34;;;;;;;25.57;13.13;;;;;;;;;;4434948;32;20252;-53
2021/10/25 00:43:59;;;;;;;28.97;12.33;;;;;;;;;;4434964;32;20671;-53
2021/10/25 00:46:25;;;;;;;38.20;13.70;;;;;;;;;;4434433;32;20578;-53
2021/10/25 00:48:50;;;;;;;31.63;12.63;;;;;;;;;;4434374;32;20395;-53
2021/10/25 00:51:16;;;;;;;22.23;11.10;;;;;;;;;;4434646;32;20292;-52
2021/10/25 00:53:42;;;;;;;23.00;11.23;;;;;;;;;;4434472;32;20319;-52
2021/10/25 00:56:08;;;;;;;23.03;10.97;;;;;;;;;;4434398;32;20585;-53
2021/10/25 00:58:34;;;;;;;31.30;12.87;;;;;;;;;;4434793;32;20620;-53
2021/10/25 01:01:00;;;;;;;26.47;14.87;;;;;;;;;;4433867;32;20284;-54
2021/10/25 01:03:26;;;;;;;30.47;13.43;;;;;;;;;;4434361;32;20208;-53
2021/10/25 01:05:52;;;;;;;19.77;9.93;;;;;;;;;;4434375;32;20765;-52
2021/10/25 01:08:17;;;;;;;14.80;8.23;;;;;;;;;;4434154;32;20387;-52
2021/10/25 01:10:44;;;;;;;15.67;8.73;;;;;;;;;;4434183;32;20724;-53
2021/10/25 01:13:10;;;;;;;13.50;9.30;;;;;;;;;;4433953;32;20193;-52
2021/10/25 01:15:36;;;;;;;16.33;10.10;;;;;;;;;;4434829;32;20310;-52
2021/10/25 01:18:02;;;;;;;17.17;9.90;;;;;;;;;;4433913;32;20220;-52
2021/10/25 01:20:30;;;;;;;21.70;9.70;;;;;;;;;;4435520;32;20312;-54
2021/10/25 01:22:57;;;;;;;21.17;10.77;;;;;;;;;;4424952;32;20662;-53
2021/10/25 01:25:23;;;;;;;20.00;10.50;;;;;;;;;;4418807;32;20530;-53
2021/10/25 01:27:49;;;;;;;18.27;10.10;;;;;;;;;;4433244;32;20271;-52
2021/10/25 01:30:16;;;;;;;19.67;10.53;;;;;;;;;;4434095;32;20281;-53
2021/10/25 01:32:43;;;;;;;17.13;9.47;;;;;;;;;;4433828;32;20240;-52
2021/10/25 01:35:09;;;;;;;24.23;11.17;;;;;;;;;;4433580;32;20255;-53
2021/10/25 01:37:35;;;;;;;23.83;12.87;;;;;;;;;;4433926;32;20257;-53
2021/10/25 01:40:00;;;;;;;19.03;10.80;;;;;;;;;;4434425;32;20284;-52
2021/10/25 01:42:26;;;;;;;22.50;10.93;;;;;;;;;;4433748;32;20317;-52
2021/10/25 01:44:52;;;;;;;17.87;9.67;;;;;;;;;;4433860;32;20718;-52
2021/10/25 01:47:18;;;;;;;16.97;9.57;;;;;;;;;;4433661;32;20232;-53
2021/10/25 01:49:43;;;;;;;19.23;10.30;;;;;;;;;;4433713;32;20343;-61
2021/10/25 01:52:09;;;;;;;17.30;9.10;;;;;;;;;;4433627;32;20275;-52
2021/10/25 01:54:34;;;;;;;17.07;10.87;;;;;;;;;;4434091;32;20780;-52
2021/10/25 01:57:00;;;;;;;20.50;12.80;;;;;;;;;;4433639;32;20282;-52
2021/10/25 01:59:25;;;;;;;38.80;15.00;;;;;;;;;;4433401;32;20299;-52
2021/10/25 02:01:51;;;;;;;35.13;15.60;;;;;;;;;;4432861;32;20637;-52
2021/10/25 02:04:16;;;;;;;39.37;16.73;;;;;;;;;;4433217;32;20333;-52
2021/10/25 02:06:42;;;;;;;30.73;14.10;;;;;;;;;;4433529;32;20324;-52
2021/10/25 02:09:07;;;;;;;19.70;12.53;;;;;;;;;;4433369;32;20312;-52
2021/10/25 02:11:32;;;;;;;26.83;12.53;;;;;;;;;;4433261;32;20250;-52
2021/10/25 02:13:58;;;;;;;26.87;11.40;;;;;;;;;;4432115;32;20378;-54
2021/10/25 02:16:23;;;;;;;23.97;11.33;;;;;;;;;;4433018;32;20657;-52
2021/10/25 02:18:49;;;;;;;20.50;11.67;;;;;;;;;;4433441;32;20748;-52
2021/10/25 02:21:14;;;;;;;17.60;9.47;;;;;;;;;;4433043;32;20298;-54
2021/10/25 02:23:41;;;;;;;42.47;14.50;;;;;;;;;;4433129;32;20321;-54
2021/10/25 02:26:07;;;;;;;30.10;14.00;;;;;;;;;;4432939;32;20244;-53
2021/10/25 02:28:33;;;;;;;23.37;12.63;;;;;;;;;;4433030;32;20310;-53
2021/10/25 02:30:59;;;;;;;30.30;13.90;;;;;;;;;;4433213;32;20356;-53
2021/10/25 02:33:25;;;;;;;31.13;12.93;;;;;;;;;;4431879;32;20361;-53
2021/10/25 02:35:50;;;;;;;24.33;13.13;;;;;;;;;;4433491;32;20632;-53
2021/10/25 02:38:17;;;;;;;23.90;12.83;;;;;;;;;;4432931;32;20358;-54
2021/10/25 02:40:43;;;;;;;26.90;12.23;;;;;;;;;;4433104;32;20270;-53
2021/10/25 02:43:08;;;;;;;26.83;10.80;;;;;;;;;;4432876;32;20200;-52
2021/10/25 02:45:34;;;;;;;25.07;11.93;;;;;;;;;;4433561;32;20280;-52
2021/10/25 02:48:01;;;;;;;21.33;11.93;;;;;;;;;;4431876;32;20247;-53
2021/10/25 02:50:26;;;;;;;24.03;11.57;;;;;;;;;;4433466;32;20307;-54
2021/10/25 02:52:53;;;;;;;23.63;11.80;;;;;;;;;;4433315;32;20518;-53
2021/10/25 02:55:18;;;;;;;17.67;10.73;;;;;;;;;;4432862;32;20273;-53
2021/10/25 02:57:44;;;;;;;19.03;10.97;;;;;;;;;;4433378;32;20715;-53
2021/10/25 03:00:13;;;;;;;26.17;11.83;;;;;;;;;;4432967;32;20359;-52
2021/10/25 03:02:39;;;;;;;22.70;11.63;;;;;;;;;;4432195;32;20349;-52
2021/10/25 03:05:06;;;;;;;24.70;13.73;;;;;;;;;;4433194;32;20753;-52
2021/10/25 03:07:31;;;;;;;23.90;12.50;;;;;;;;;;4432793;32;20375;-54
2021/10/25 03:09:57;;;;;;;27.33;12.63;;;;;;;;;;4432942;32;20320;-54
2021/10/25 03:12:23;;;;;;;25.87;12.50;;;;;;;;;;4432638;32;20645;-53
2021/10/25 03:14:48;;;;;;;27.97;13.97;;;;;;;;;;4432884;32;20314;-53
2021/10/25 03:17:14;;;;;;;32.10;14.07;;;;;;;;;;4432755;32;20424;-51
2021/10/25 03:19:40;;;;;;;34.63;17.90;;;;;;;;;;4432888;32;20330;-53
2021/10/25 03:22:07;;;;;;;37.50;19.53;;;;;;;;;;4432359;32;20270;-53
2021/10/25 03:24:34;;;;;;;28.43;12.63;;;;;;;;;;4432669;32;20276;-53
2021/10/25 03:26:59;;;;;;;28.67;10.10;;;;;;;;;;4431514;32;20237;-52
2021/10/25 03:29:25;;;;;;;20.70;10.23;;;;;;;;;;4432620;32;20318;-54
2021/10/25 03:31:51;;;;;;;26.03;11.43;;;;;;;;;;4432864;32;20364;-53
2021/10/25 03:34:17;;;;;;;40.20;18.13;;;;;;;;;;4431343;32;20386;-54
2021/10/25 03:36:45;;;;;;;66.67;25.17;;;;;;;;;;4432576;32;20317;-53
2021/10/25 03:39:11;;;;;;;55.17;23.90;;;;;;;;;;4432486;32;20209;-53
2021/10/25 03:41:40;;;;;;;49.30;21.30;;;;;;;;;;4432480;32;20262;-53
2021/10/25 03:44:13;;;;;;;60.97;26.40;;;;;;;;;;4432378;32;20233;-53
2021/10/25 03:51:49;;;;;;;50.73;23.93;;;;;;;;;;4432602;32;20317;-53
2021/10/25 03:54:37;;;;;;;45.03;22.00;;;;;;;;;;4432677;32;20314;-54
2021/10/25 04:13:19;;;;;;;29.43;15.63;;;;;;;;;;4435091;32;20275;-52
2021/10/25 04:29:05;;;;;;;45.93;20.53;;;;;;;;;;4434982;32;20263;-53
2021/10/25 04:31:31;;;;;;;41.00;20.50;;;;;;;;;;4434756;32;20307;-53
2021/10/25 04:33:56;;;;;;;45.07;21.83;;;;;;;;;;4434648;32;20398;-52
2021/10/25 04:36:22;;;;;;;42.17;19.63;;;;;;;;;;4434535;32;20252;-52
2021/10/25 04:38:47;;;;;;;41.63;19.53;;;;;;;;;;4434477;32;20272;-52
2021/10/25 04:41:13;;;;;;;30.27;17.87;;;;;;;;;;4434503;32;20462;-52
2021/10/25 04:43:40;;;;;;;33.07;16.60;;;;;;;;;;4434380;32;20307;-53
2021/10/25 04:46:05;;;;;;;37.47;17.73;;;;;;;;;;4434108;32;20248;-52
2021/10/25 04:48:30;;;;;;;27.43;15.30;;;;;;;;;;4434605;32;20391;-52
2021/10/25 04:50:56;;;;;;;27.87;15.80;;;;;;;;;;4434329;32;20602;-52
2021/10/25 04:53:21;;;;;;;31.77;17.20;;;;;;;;;;4434618;32;20350;-52
2021/10/25 04:55:47;;;;;;;37.50;18.47;;;;;;;;;;4434493;32;20418;-52
2021/10/25 04:58:13;;;;;;;70.13;27.27;;;;;;;;;;4434090;32;20420;-53
2021/10/25 05:00:39;;;;;;;113.70;34.43;;;;;;;;;;4434396;32;20274;-53
2021/10/25 05:03:06;;;;;;;100.17;36.53;;;;;;;;;;4433644;32;20260;-52
2021/10/25 05:05:32;;;;;;;75.33;33.70;;;;;;;;;;4434646;32;20335;-53
2021/10/25 05:07:58;;;;;;;83.13;37.80;;;;;;;;;;4434348;32;20229;-54
2021/10/25 05:10:23;;;;;;;74.33;40.13;;;;;;;;;;4434060;32;20344;-54
2021/10/25 05:12:49;;;;;;;67.60;33.97;;;;;;;;;;4433909;32;20536;-52
2021/10/25 05:15:14;;;;;;;56.13;27.13;;;;;;;;;;4434110;32;20335;-54
2021/10/25 05:17:39;;;;;;;80.83;31.00;;;;;;;;;;4434015;32;20229;-52
2021/10/25 05:20:05;;;;;;;44.70;26.67;;;;;;;;;;4433945;32;20268;-52
2021/10/25 05:22:31;;;;;;;50.60;25.30;;;;;;;;;;4433795;32;20822;-54
2021/10/25 05:24:57;;;;;;;57.00;27.13;;;;;;;;;;4433915;32;20288;-52
2021/10/25 05:27:23;;;;;;;47.53;26.77;;;;;;;;;;4433601;32;20601;-53
2021/10/25 05:29:48;;;;;;;64.77;36.40;;;;;;;;;;4433784;32;20299;-54
2021/10/25 05:32:13;;;;;;;82.33;47.53;;;;;;;;;;4433641;32;20219;-53
2021/10/25 05:34:39;;;;;;;74.37;45.90;;;;;;;;;;4433763;32;20340;-53
2021/10/25 05:37:05;;;;;;;86.50;48.10;;;;;;;;;;4433261;32;20241;-53
2021/10/25 05:39:30;;;;;;;93.20;46.70;;;;;;;;;;4433650;32;20287;-53
2021/10/25 05:41:56;;;;;;;80.80;39.27;;;;;;;;;;4433359;32;20344;-53
2021/10/25 05:44:22;;;;;;;73.63;32.23;;;;;;;;;;4432520;32;20645;-53
2021/10/25 05:46:47;;;;;;;69.07;32.43;;;;;;;;;;4432474;32;20706;-53
2021/10/25 05:49:14;;;;;;;69.23;34.10;;;;;;;;;;4432693;32;20304;-53
2021/10/25 05:51:40;;;;;;;66.90;34.80;;;;;;;;;;4432244;32;20648;-52
2021/10/25 05:54:06;;;;;;;79.40;35.17;;;;;;;;;;4431520;32;20295;-53
2021/10/25 05:56:32;;;;;;;61.20;36.77;;;;;;;;;;4433278;32;20291;-53
2021/10/25 05:58:57;;;;;;;79.57;39.50;;;;;;;;;;4433220;32;20730;-53
2021/10/25 06:01:30;;;;;;;66.73;37.77;;;;;;;;;;4430601;32;20291;-52
2021/10/25 06:04:06;;;;;;;72.13;38.27;;;;;;;;;;4430664;32;20629;-53
2021/10/25 06:06:33;;;;;;;71.67;35.90;;;;;;;;;;4430863;32;20794;-53
2021/10/25 06:08:59;;;;;;;68.60;38.80;;;;;;;;;;4430626;32;20233;-54
2021/10/25 06:11:25;;;;;;;64.30;33.07;;;;;;;;;;4431271;32;20259;-53
2021/10/25 06:13:54;;;;;;;71.70;33.30;;;;;;;;;;4431348;32;20802;-54
2021/10/25 06:16:22;;;;;;;54.93;29.80;;;;;;;;;;4431661;32;20387;-53
2021/10/25 06:18:47;;;;;;;65.23;29.07;;;;;;;;;;4432091;32;20286;-53
2021/10/25 06:21:13;;;;;;;49.47;28.77;;;;;;;;;;4433592;32;20231;-54
2021/10/25 06:23:39;;;;;;;46.50;24.27;;;;;;;;;;4423663;32;20372;-54
2021/10/25 06:26:05;;;;;;;37.80;17.00;;;;;;;;;;4421475;32;20638;-53
2021/10/25 06:28:31;;;;;;;33.60;18.77;;;;;;;;;;4433282;32;20371;-54
2021/10/25 06:31:01;;;;;;;36.13;19.30;;;;;;;;;;4432899;32;20255;-53
2021/10/25 06:33:28;;;;;;;43.63;20.50;;;;;;;;;;4431774;32;20271;-52
2021/10/25 06:36:11;;;;;;;37.37;20.37;;;;;;;;;;4433374;32;20272;-52
2021/10/25 06:38:44;;;;;;;40.83;18.83;;;;;;;;;;4433419;32;20272;-52
2021/10/25 06:41:10;;;;;;;37.23;18.60;;;;;;;;;;4433078;32;20221;-53
2021/10/25 06:43:35;;;;;;;33.10;19.03;;;;;;;;;;4433234;32;20318;-53
2021/10/25 06:46:02;;;;;;;30.73;17.97;;;;;;;;;;4431141;32;20304;-53
2021/10/25 06:48:31;;;;;;;37.60;19.53;;;;;;;;;;4431517;32;20615;-55
2021/10/25 06:50:57;;;;;;;29.73;20.00;;;;;;;;;;4432731;32;20227;-53
2021/10/25 06:53:23;;;;;;;38.13;21.03;;;;;;;;;;4432930;32;20295;-53
2021/10/25 06:55:48;;;;;;;36.93;19.10;;;;;;;;;;4431977;32;20303;-54
2021/10/25 06:58:14;;;;;;;32.70;17.23;;;;;;;;;;4433006;32;20306;-53
2021/10/25 07:00:40;;;;;;;32.80;18.10;;;;;;;;;;4432943;32;20301;-54
2021/10/25 07:03:07;;;;;;;30.10;18.13;;;;;;;;;;4432266;32;20287;-53
2021/10/25 07:05:35;;;;;;;31.60;16.33;;;;;;;;;;4433326;32;20205;-53
2021/10/25 07:08:01;;;;;;;32.60;19.17;;;;;;;;;;4433498;32;20251;-53
2021/10/25 07:10:27;;;;;;;27.00;17.77;;;;;;;;;;4432999;32;20303;-53
2021/10/25 07:12:53;;;;;;;30.83;19.33;;;;;;;;;;4432918;32;20682;-53
2021/10/25 07:15:19;;;;;;;35.53;18.77;;;;;;;;;;4432778;32;20284;-53
2021/10/25 07:18:08;;;;;;;31.80;17.63;;;;;;;;;;4432889;32;20224;-53
2021/10/25 08:11:59;;;;;;;61.37;34.57;;;;;;;;;;4434957;32;20249;-54
2021/10/25 08:14:40;;;;;;;49.37;30.10;;;;;;;;;;4435004;32;20224;-53
2021/10/25 08:17:08;;;;;;;40.00;25.30;;;;;;;;;;4434934;32;20741;-53
2021/10/25 08:19:34;;;;;;;42.63;23.03;;;;;;;;;;4434041;32;20267;-54
2021/10/25 08:21:59;;;;;;;38.10;24.17;;;;;;;;;;4435441;32;20225;-54
2021/10/25 08:24:27;;;;;;;38.03;23.87;;;;;;;;;;4443965;32;20362;-52
2021/10/25 08:26:54;;;;;;;41.50;25.97;;;;;;;;;;4434736;32;20220;-53
2021/10/25 08:29:20;;;;;;;39.23;21.17;;;;;;;;;;4434488;32;20322;-54
2021/10/25 08:39:57;;;;;;;27.47;16.07;;;;;;;;;;4434158;32;20299;-53
2021/10/25 08:42:28;;;;;;;21.97;13.73;;;;;;;;;;4433476;32;20236;-54
2021/10/25 08:45:12;;;;;;;29.17;18.90;;;;;;;;;;4433156;32;20260;-53
2021/10/25 08:47:47;;;;;;;38.57;18.23;;;;;;;;;;4434898;32;20304;-55
2021/10/25 08:50:24;;;;;;;24.93;16.57;;;;;;;;;;4434476;32;20560;-52
2021/10/25 08:52:50;;;;;;;22.77;15.00;;;;;;;;;;4434709;32;20649;-53
2021/10/25 08:55:17;;;;;;;22.83;14.10;;;;;;;;;;4434541;32;20313;-53
2021/10/25 08:57:44;;;;;;;24.40;15.40;;;;;;;;;;4433953;32;20291;-53
2021/10/25 09:00:16;;;;;;;19.40;11.33;;;;;;;;;;4433819;32;20355;-53
2021/10/25 09:02:43;;;;;;;21.00;10.17;;;;;;;;;;4433650;32;20315;-53
2021/10/25 09:05:20;;;;;;;11.20;8.23;;;;;;;;;;4434310;32;20218;-54
2021/10/25 09:07:53;;;;;;;19.13;8.33;;;;;;;;;;4434197;32;20682;-53
2021/10/25 09:10:30;;;;;;;11.20;7.70;;;;;;;;;;4434311;32;20530;-54
2021/10/25 09:13:04;;;;;;;14.07;8.90;;;;;;;;;;4434259;32;21080;-54
2021/10/25 09:15:37;;;;;;;13.60;9.27;;;;;;;;;;4434144;32;20207;-53
2021/10/25 09:18:24;;;;;;;20.57;9.97;;;;;;;;;;4434467;32;20588;-53
2021/10/25 09:20:58;;;;;;;14.30;10.57;;;;;;;;;;4432479;32;20240;-52
2021/10/25 09:23:27;;;;;;;13.27;8.60;;;;;;;;;;4433909;32;20247;-53
2021/10/25 09:25:54;;;;;;;12.90;9.20;;;;;;;;;;4433658;32;20231;-53
2021/10/25 09:28:27;;;;;;;17.43;9.33;;;;;;;;;;4433763;32;20231;-53
2021/10/25 09:31:00;;;;;;;13.53;8.03;;;;;;;;;;4427491;32;20262;-52
2021/10/25 09:33:33;;;;;;;13.77;8.20;;;;;;;;;;4418288;32;20229;-53
2021/10/25 09:36:03;;;;;;;13.30;8.47;;;;;;;;;;4426585;32;20251;-53
2021/10/25 09:41:34;;;;;;;16.07;8.93;;;;;;;;;;4433735;32;20243;-53
2021/10/25 09:49:28;;;;;;;8.97;6.47;;;;;;;;;;4433606;32;20318;-53
2021/10/25 09:51:55;;;;;;;16.10;6.17;;;;;;;;;;4433718;32;20705;-53
2021/10/25 09:54:22;;;;;;;14.13;7.27;;;;;;;;;;4433273;32;20270;-53
2021/10/25 09:59:49;;;;;;;14.70;7.40;;;;;;;;;;4433533;32;20302;-53
2021/10/25 10:02:15;;;;;;;8.03;6.20;;;;;;;;;;4425492;32;20232;-52
2021/10/25 10:04:44;;;;;;;9.10;7.03;;;;;;;;;;4433536;32;20605;-54
2021/10/25 10:07:16;;;;;;;7.57;5.97;;;;;;;;;;4432758;32;20258;-54
2021/10/25 10:09:46;;;;;;;11.20;8.03;;;;;;;;;;4432138;32;20265;-53
2021/10/25 10:12:18;;;;;;;18.60;7.33;;;;;;;;;;4431558;32;20307;-54
2021/10/25 10:14:49;;;;;;;11.47;8.70;;;;;;;;;;4431362;32;20201;-53
2021/10/25 10:17:48;;;;;;;14.53;9.30;;;;;;;;;;4429738;32;20248;-55
2021/10/25 10:20:18;;;;;;;11.33;5.80;;;;;;;;;;4419608;32;20267;-53
2021/10/25 10:22:50;;;;;;;13.33;9.03;;;;;;;;;;4433893;32;20378;-53
2021/10/25 10:25:33;;;;;;;19.30;12.03;;;;;;;;;;4417555;32;20240;-53
2021/10/25 10:28:00;;;;;;;17.37;8.43;;;;;;;;;;4432954;32;20243;-53
2021/10/25 10:30:26;;;;;;;14.87;9.03;;;;;;;;;;4432851;32;20264;-55
2021/10/25 10:33:07;;;;;;;22.00;12.17;;;;;;;;;;4433519;32;20447;-55
2021/10/25 10:35:45;;;;;;;16.00;7.00;;;;;;;;;;4431869;32;20258;-55
2021/10/25 10:38:10;;;;;;;9.87;5.33;;;;;;;;;;4433415;32;20645;-54
2021/10/25 10:40:42;;;;;;;10.37;5.93;;;;;;;;;;4433499;32;20317;-54
2021/10/25 10:43:27;;;;;;;9.90;6.80;;;;;;;;;;4432903;32;20889;-53
2021/10/25 10:46:12;;;;;;;15.90;9.37;;;;;;;;;;4432999;32;20658;-53
2021/10/25 10:48:39;;;;;;;12.93;7.60;;;;;;;;;;4433201;32;20231;-53
2021/10/25 10:51:10;;;;;;;9.77;7.23;;;;;;;;;;4433062;32;20707;-53
2021/10/25 10:53:49;;;;;;;12.57;6.40;;;;;;;;;;4433600;32;20189;-54
2021/10/25 10:56:24;;;;;;;8.60;6.13;;;;;;;;;;4433026;32;20253;-54
2021/10/25 11:01:15;;;;;;;12.80;7.17;;;;;;;;;;4432082;32;20324;-54
2021/10/25 11:03:41;;;;;;;11.77;7.87;;;;;;;;;;4432894;32;20884;-53
2021/10/25 11:06:10;;;;;;;9.80;6.77;;;;;;;;;;4432736;32;20263;-55
2021/10/25 11:08:41;;;;;;;15.30;10.07;;;;;;;;;;4432949;32;20244;-53
2021/10/25 11:11:19;;;;;;;9.60;5.40;;;;;;;;;;4435199;32;20346;-53
2021/10/25 11:14:02;;;;;;;14.93;8.37;;;;;;;;;;4433394;32;20695;-52
2021/10/25 11:16:51;;;;;;;8.13;5.87;;;;;;;;;;4433688;32;20335;-53
2021/10/25 11:19:17;;;;;;;9.90;6.03;;;;;;;;;;4433724;32;20224;-53
2021/10/25 11:21:47;;;;;;;13.50;7.37;;;;;;;;;;4433897;32;20319;-53
2021/10/25 11:24:17;;;;;;;9.70;5.30;;;;;;;;;;4445612;32;20664;-55
2021/10/25 11:26:44;;;;;;;11.27;7.67;;;;;;;;;;4443180;32;20232;-54
2021/10/25 11:29:15;;;;;;;81.83;32.93;;;;;;;;;;4434478;32;20232;-55
2021/10/25 11:31:53;;;;;;;24.87;15.13;;;;;;;;;;4436255;32;20677;-54
2021/10/25 11:34:26;;;;;;;16.97;10.73;;;;;;;;;;4436160;32;20196;-54
2021/10/25 11:37:07;;;;;;;13.60;7.00;;;;;;;;;;4436139;32;20358;-55
2021/10/25 11:39:41;;;;;;;8.67;6.00;;;;;;;;;;4436066;32;20204;-54
2021/10/25 11:42:18;;;;;;;21.17;12.80;;;;;;;;;;4436054;32;20396;-54
2021/10/25 11:44:46;;;;;;;29.37;15.40;;;;;;;;;;4435890;32;20227;-54
2021/10/25 11:47:23;;;;;;;107.00;41.03;;;;;;;;;;4435629;32;20323;-55
2021/10/25 11:50:03;;;;;;;218.83;76.70;;;;;;;;;;4436012;32;20200;-55
2021/10/25 11:52:46;;;;;;;40.17;21.23;;;;;;;;;;4435793;32;20229;-54
2021/10/25 11:55:15;;;;;;;10.97;6.77;;;;;;;;;;4435586;32;20393;-54
2021/10/25 11:57:55;;;;;;;51.40;24.37;;;;;;;;;;4435666;32;20232;-54
2021/10/25 12:00:24;;;;;;;8.70;4.37;;;;;;;;;;4435430;32;20224;-54
2021/10/25 12:02:50;;;;;;;19.37;11.13;;;;;;;;;;4434299;32;20595;-54
2021/10/25 12:05:24;;;;;;;17.73;10.17;;;;;;;;;;4434328;32;20247;-54
2021/10/25 12:07:54;;;;;;;9.87;7.37;;;;;;;;;;4433642;32;20296;-54
2021/10/25 12:10:22;;;;;;;12.60;5.17;;;;;;;;;;4434282;32;20260;-54
2021/10/25 12:12:59;;;;;;;17.40;11.40;;;;;;;;;;4433478;32;20593;-53
2021/10/25 12:15:26;;;;;;;17.87;6.40;;;;;;;;;;4434684;32;20229;-56
2021/10/25 12:17:56;;;;;;;8.60;4.50;;;;;;;;;;4434404;32;20283;-54
2021/10/25 12:20:25;;;;;;;9.03;5.87;;;;;;;;;;4434320;32;20220;-53
2021/10/25 12:23:04;;;;;;;9.37;5.57;;;;;;;;;;4434888;32;20687;-54
2021/10/25 12:25:31;;;;;;;15.37;7.10;;;;;;;;;;4433979;32;20254;-55
2021/10/25 12:28:00;;;;;;;11.17;8.17;;;;;;;;;;4433792;32;20520;-55
2021/10/25 12:30:28;;;;;;;9.13;6.53;;;;;;;;;;4432876;32;20216;-53
2021/10/25 12:33:01;;;;;;;10.47;7.67;;;;;;;;;;4434402;32;20321;-55
2021/10/25 12:35:43;;;;;;;15.07;7.60;;;;;;;;;;4434103;32;20263;-53
2021/10/25 12:38:12;;;;;;;12.10;9.07;;;;;;;;;;4434050;32;20232;-53
2021/10/25 12:40:44;;;;;;;7.70;4.73;;;;;;;;;;4434513;32;20197;-53
2021/10/25 12:43:10;;;;;;;7.10;4.30;;;;;;;;;;4433933;32;20236;-54
2021/10/25 12:45:45;;;;;;;9.50;6.10;;;;;;;;;;4434406;32;20334;-54
2021/10/25 12:48:14;;;;;;;12.00;7.23;;;;;;;;;;4434062;32;20587;-54
2021/10/25 12:50:44;;;;;;;15.03;9.73;;;;;;;;;;4434176;32;20224;-55
2021/10/25 12:53:11;;;;;;;20.03;10.83;;;;;;;;;;4432949;32;20285;-54
2021/10/25 12:55:38;;;;;;;15.33;10.17;;;;;;;;;;4432850;32;20259;-54
2021/10/25 12:58:12;;;;;;;14.03;7.77;;;;;;;;;;4432821;32;20303;-54
2021/10/25 13:00:38;;;;;;;10.23;7.27;;;;;;;;;;4427972;32;20254;-53
2021/10/25 13:03:11;;;;;;;25.27;13.27;;;;;;;;;;4432494;32;20284;-55
2021/10/25 13:05:38;;;;;;;35.63;18.57;;;;;;;;;;4434351;32;20216;-54
2021/10/25 13:08:07;;;;;;;29.50;14.93;;;;;;;;;;4434520;32;20270;-54
2021/10/25 13:10:36;;;;;;;22.87;12.93;;;;;;;;;;4434728;32;20270;-53
2021/10/25 13:13:04;;;;;;;14.97;10.83;;;;;;;;;;4433127;32;20758;-54
2021/10/25 13:15:30;;;;;;;11.67;8.07;;;;;;;;;;4433353;32;20271;-54
2021/10/25 13:17:58;;;;;;;14.00;8.00;;;;;;;;;;4434431;32;20233;-54
2021/10/25 13:20:26;;;;;;;9.47;4.63;;;;;;;;;;4434140;32;20321;-53
2021/10/25 13:22:55;;;;;;;6.10;4.93;;;;;;;;;;4436603;32;20355;-54
2021/10/25 13:25:22;;;;;;;10.87;7.70;;;;;;;;;;4449398;32;20389;-53
2021/10/25 13:27:49;;;;;;;10.00;5.50;;;;;;;;;;4433517;32;20332;-53
2021/10/25 13:30:17;;;;;;;11.60;6.10;;;;;;;;;;4432794;32;20213;-54
2021/10/25 13:32:43;;;;;;;26.47;11.47;;;;;;;;;;4433359;32;20320;-53
2021/10/25 13:35:09;;;;;;;24.20;14.60;;;;;;;;;;4433997;32;20229;-55
2021/10/25 13:37:35;;;;;;;19.07;10.50;;;;;;;;;;4433971;32;20581;-53
2021/10/25 13:40:01;;;;;;;21.50;14.00;;;;;;;;;;4433664;32;20283;-54
2021/10/25 13:42:26;;;;;;;13.57;6.57;;;;;;;;;;4433496;32;20263;-54
2021/10/25 13:44:52;;;;;;;14.43;8.40;;;;;;;;;;4433655;32;20299;-56
2021/10/25 13:47:19;;;;;;;12.87;7.27;;;;;;;;;;4433703;32;20291;-54
2021/10/25 13:49:44;;;;;;;6.47;4.70;;;;;;;;;;4433942;32;20216;-54
2021/10/25 13:52:10;;;;;;;9.50;5.53;;;;;;;;;;4433500;32;20285;-53
2021/10/25 13:54:37;;;;;;;5.97;3.87;;;;;;;;;;4433449;32;20280;-54
2021/10/25 13:57:09;;;;;;;11.73;5.00;;;;;;;;;;4433181;32;20641;-53
2021/10/25 13:59:37;;;;;;;5.77;3.97;;;;;;;;;;4433292;32;20560;-53
2021/10/25 14:02:06;;;;;;;7.00;4.43;;;;;;;;;;4432454;32;20259;-54
2021/10/25 14:04:33;;;;;;;10.13;4.30;;;;;;;;;;4433547;32;20698;-54
2021/10/25 14:07:00;;;;;;;8.53;6.03;;;;;;;;;;4433640;32;20292;-54
2021/10/25 14:09:26;;;;;;;5.70;4.77;;;;;;;;;;4432077;32;20268;-55
2021/10/25 14:11:55;;;;;;;10.70;3.47;;;;;;;;;;4433169;32;20339;-54
2021/10/25 14:14:22;;;;;;;11.07;4.80;;;;;;;;;;4432918;32;20205;-53
2021/10/25 14:16:52;;;;;;;9.63;4.20;;;;;;;;;;4432294;32;20252;-53
2021/10/25 14:19:23;;;;;;;7.17;4.50;;;;;;;;;;4432274;32;20745;-53
2021/10/25 14:21:51;;;;;;;9.27;5.57;;;;;;;;;;4432198;32;20240;-55
2021/10/25 14:24:18;;;;;;;9.90;5.10;;;;;;;;;;4431986;32;20632;-53
2021/10/25 14:26:44;;;;;;;10.70;6.03;;;;;;;;;;4431889;32;20296;-54
2021/10/25 14:29:10;;;;;;;10.83;5.93;;;;;;;;;;4431903;32;20363;-54
2021/10/25 14:31:39;;;;;;;12.10;4.60;;;;;;;;;;4432795;32;20714;-54
2021/10/25 14:34:05;;;;;;;8.00;3.30;;;;;;;;;;4433006;32;20216;-53
2021/10/25 14:36:32;;;;;;;7.77;4.07;;;;;;;;;;4432973;32;20260;-53
2021/10/25 14:44:12;;;;;;;20.20;7.97;;;;;;;;;;4429922;32;20209;-53
2021/10/25 14:46:59;;;;;;;12.47;6.23;;;;;;;;;;4431376;32;20262;-54
2021/10/25 14:55:03;;;;;;;9.53;6.30;;;;;;;;;;4430806;32;20274;-54
2021/10/25 14:57:28;;;;;;;8.23;5.53;;;;;;;;;;4443511;32;20278;-53
2021/10/25 14:59:55;;;;;;;13.03;6.57;;;;;;;;;;4430528;32;20347;-54
2021/10/25 15:02:21;;;;;;;11.23;6.10;;;;;;;;;;4428930;32;20256;-54
2021/10/25 15:04:47;;;;;;;15.53;6.13;;;;;;;;;;4429871;32;20667;-54
2021/10/25 15:07:23;;;;;;;19.70;9.60;;;;;;;;;;4432742;32;20293;-54
2021/10/25 15:09:54;;;;;;;15.77;9.57;;;;;;;;;;4433011;32;20226;-53
2021/10/25 15:12:22;;;;;;;26.43;14.80;;;;;;;;;;4432876;32;20253;-53
2021/10/25 15:14:51;;;;;;;29.17;18.47;;;;;;;;;;4432681;32;20673;-54
2021/10/25 15:17:18;;;;;;;31.23;16.50;;;;;;;;;;4432417;32;20240;-53
2021/10/25 15:19:44;;;;;;;34.00;15.33;;;;;;;;;;4432525;32;20609;-54
2021/10/25 15:22:15;;;;;;;29.43;16.60;;;;;;;;;;4431669;32;20282;-54
2021/10/25 15:24:47;;;;;;;24.50;11.47;;;;;;;;;;4431135;32;20309;-53
2021/10/25 15:27:16;;;;;;;21.93;10.77;;;;;;;;;;4432414;32;20338;-55
2021/10/25 15:29:47;;;;;;;17.73;9.07;;;;;;;;;;4432521;32;20212;-54
2021/10/25 15:32:13;;;;;;;13.07;7.20;;;;;;;;;;4432586;32;20303;-53
2021/10/25 15:34:41;;;;;;;14.67;8.43;;;;;;;;;;4432491;32;20209;-54
2021/10/25 15:37:14;;;;;;;20.77;9.77;;;;;;;;;;4431851;32;20232;-54
2021/10/25 15:39:41;;;;;;;14.73;7.50;;;;;;;;;;4432300;32;20192;-54
2021/10/25 15:42:08;;;;;;;18.23;7.13;;;;;;;;;;4430554;32;20296;-54
2021/10/25 15:44:34;;;;;;;9.73;6.13;;;;;;;;;;4432794;32;20213;-54
2021/10/25 15:47:01;;;;;;;19.17;9.23;;;;;;;;;;4432427;32;20228;-54
2021/10/25 15:49:27;;;;;;;16.30;6.17;;;;;;;;;;4432266;32;20272;-54
2021/10/25 15:51:53;;;;;;;13.80;6.13;;;;;;;;;;4432335;32;20216;-53
2021/10/25 15:54:18;;;;;;;10.57;5.77;;;;;;;;;;4432501;32;20345;-54
2021/10/25 15:56:46;;;;;;;11.40;6.17;;;;;;;;;;4434837;32;20221;-54
2021/10/25 15:59:12;;;;;;;11.33;6.97;;;;;;;;;;4434992;32;20259;-53
2021/10/25 16:01:37;;;;;;;14.30;6.43;;;;;;;;;;4427328;32;20663;-54
2021/10/25 16:04:03;;;;;;;7.73;6.03;;;;;;;;;;4435548;32;20280;-53
2021/10/25 16:06:29;;;;;;;10.47;6.07;;;;;;;;;;4435209;32;20573;-53
2021/10/25 16:08:55;;;;;;;11.00;5.97;;;;;;;;;;4418545;32;20443;-55
2021/10/25 16:11:21;;;;;;;11.47;5.70;;;;;;;;;;4419264;32;20259;-53
2021/10/25 16:13:46;;;;;;;10.37;6.10;;;;;;;;;;4419990;32;20334;-54
2021/10/25 16:16:12;;;;;;;9.33;5.93;;;;;;;;;;4419853;32;20263;-54
2021/10/25 16:18:38;;;;;;;12.40;7.23;;;;;;;;;;4419674;32;20291;-53
2021/10/25 16:21:04;;;;;;;14.20;6.93;;;;;;;;;;4419570;32;20383;-53
2021/10/25 16:23:30;;;;;;;12.63;7.30;;;;;;;;;;4432990;32;20295;-55
2021/10/25 16:25:55;;;;;;;12.73;6.93;;;;;;;;;;4445847;32;20312;-53
2021/10/25 16:28:21;;;;;;;11.00;5.23;;;;;;;;;;4434487;32;20470;-53